createdAt,value
2023-06-03T00:02:43.234Z,2.40
2023-06-03T00:07:45.991Z,3.73
2023-06-03T00:12:48.616Z,3.63
2023-06-03T00:17:51.193Z,3.07
2023-06-03T00:22:53.579Z,4.07
2023-06-03T00:27:56.137Z,2.30
2023-06-03T00:32:58.498Z,3.07
2023-06-03T00:38:01.052Z,2.93
2023-06-03T00:43:03.337Z,1.33
2023-06-03T00:48:06.334Z,1.20
2023-06-03T00:53:09.073Z,5.83
2023-06-03T00:58:12.176Z,2.53
2023-06-03T01:03:16.110Z,2.80
2023-06-03T01:08:47.028Z,1.20
2023-06-03T01:13:56.756Z,1.37
2023-06-03T01:19:02.120Z,1.30
2023-06-03T01:24:04.805Z,1.17
2023-06-03T01:29:07.104Z,1.37
2023-06-03T01:34:09.413Z,2.00
2023-06-03T01:39:12.635Z,3.00
2023-06-03T01:44:15.485Z,1.30
2023-06-03T01:49:19.854Z,0.80
2023-06-03T01:54:26.500Z,3.87
2023-06-03T01:59:29.587Z,1.37
2023-06-03T02:04:32.923Z,1.73
2023-06-03T02:09:35.544Z,2.87
2023-06-03T02:14:38.978Z,1.70
2023-06-03T02:19:41.938Z,2.10
2023-06-03T02:24:44.714Z,3.30
2023-06-03T02:29:53.904Z,2.17
2023-06-03T02:34:56.342Z,1.00
2023-06-03T02:39:58.724Z,2.20
2023-06-03T02:45:01.032Z,0.50
2023-06-03T02:50:03.490Z,2.83
2023-06-03T02:55:08.926Z,3.60
2023-06-03T03:00:12.447Z,2.23
2023-06-03T03:05:14.836Z,7.00
2023-06-03T03:10:17.634Z,1.47
2023-06-03T03:15:21.150Z,1.00
2023-06-03T03:20:23.820Z,2.57
2023-06-03T03:25:26.384Z,1.17
2023-06-03T03:30:28.659Z,1.97
2023-06-03T03:35:31.430Z,2.07
2023-06-03T03:40:38.036Z,1.37
2023-06-03T03:45:41.093Z,3.10
2023-06-03T03:50:50.448Z,1.77
2023-06-03T03:55:59.206Z,2.03
2023-06-03T04:01:16.357Z,2.20
2023-06-03T04:06:37.772Z,1.60
2023-06-03T04:11:44.885Z,1.63
2023-06-03T04:16:59.848Z,1.97
2023-06-03T04:22:11.316Z,0.83
2023-06-03T04:27:15.510Z,2.73
2023-06-03T04:32:19.074Z,2.93
2023-06-03T04:37:23.405Z,3.13
2023-06-03T04:42:27.745Z,3.30
2023-06-03T04:47:32.579Z,1.63
2023-06-03T04:52:36.683Z,1.90
2023-06-03T04:57:41.382Z,0.73
2023-06-03T05:02:56.863Z,2.53
2023-06-03T05:08:02.696Z,2.10
2023-06-03T05:13:07.441Z,2.23
2023-06-03T05:18:10.167Z,2.43
2023-06-03T05:23:13.452Z,1.97
2023-06-03T05:28:16.087Z,5.03
2023-06-03T05:33:29.300Z,1.83
2023-06-03T05:38:37.925Z,4.37
2023-06-03T05:43:42.717Z,3.80
2023-06-03T05:48:45.622Z,4.07
2023-06-03T05:53:48.256Z,3.07
2023-06-03T05:58:54.808Z,1.30
2023-06-03T06:03:59.563Z,0.70
2023-06-03T06:09:04.030Z,1.60
2023-06-03T06:14:07.197Z,1.93
2023-06-03T06:19:10.341Z,1.37
2023-06-03T06:24:14.579Z,2.70
2023-06-03T06:29:17.755Z,0.70
2023-06-03T06:34:20.948Z,1.00
2023-06-03T06:39:35.752Z,4.00
2023-06-03T06:44:49.157Z,2.33
2023-06-03T06:49:53.815Z,2.50
2023-06-03T06:54:57.246Z,0.43
2023-06-03T07:00:01.080Z,1.23
2023-06-03T07:05:05.780Z,1.50
2023-06-03T07:10:08.766Z,3.10
2023-06-03T07:15:12.482Z,1.90
2023-06-03T07:20:21.403Z,2.10
2023-06-03T07:25:48.013Z,3.50
2023-06-03T07:30:50.705Z,3.03
2023-06-03T07:35:55.349Z,0.83
2023-06-03T07:40:58.431Z,1.13
2023-06-03T07:46:10.578Z,4.23
2023-06-03T07:51:14.368Z,0.50
2023-06-03T07:56:16.713Z,1.10
2023-06-03T08:01:19.461Z,1.20
2023-06-03T08:06:27.559Z,3.77
2023-06-03T08:11:31.841Z,5.43
2023-06-03T08:16:36.871Z,2.00
2023-06-03T08:21:40.517Z,2.03
2023-06-03T08:26:45.940Z,1.30
2023-06-03T08:31:48.426Z,1.10
2023-06-03T08:36:51.209Z,1.80
2023-06-03T08:41:58.026Z,2.37
2023-06-03T08:47:34.088Z,3.73
2023-06-03T08:52:39.589Z,1.67
2023-06-03T08:57:48.756Z,3.07
2023-06-03T09:02:53.047Z,2.97
2023-06-03T09:07:56.497Z,2.60
2023-06-03T09:13:00.353Z,2.03
2023-06-03T09:18:02.824Z,6.13
2023-06-03T09:23:05.999Z,2.27
2023-06-03T09:28:08.253Z,1.83
2023-06-03T09:33:11.051Z,2.47
2023-06-03T09:38:13.369Z,0.70
2023-06-03T09:43:16.016Z,0.87
2023-06-03T09:48:25.778Z,1.17
2023-06-03T09:53:28.137Z,1.30
2023-06-03T09:58:30.622Z,2.33
2023-06-03T10:03:33.942Z,1.43
2023-06-03T10:08:36.417Z,3.03
2023-06-03T10:13:38.795Z,2.87
2023-06-03T10:18:42.674Z,2.97
2023-06-03T10:23:45.381Z,1.43
2023-06-03T10:28:49.622Z,2.73
2023-06-03T10:33:53.084Z,1.40
2023-06-03T10:38:57.085Z,1.23
2023-06-03T10:43:59.529Z,0.90
2023-06-03T10:49:05.607Z,5.50
2023-06-03T10:54:21.131Z,1.20
2023-06-03T10:59:28.949Z,4.03
2023-06-03T11:04:33.490Z,1.23
2023-06-03T11:09:40.581Z,1.40
2023-06-03T11:14:51.809Z,1.60
2023-06-03T11:19:56.976Z,0.73
2023-06-03T11:25:00.887Z,1.87
2023-06-03T11:30:07.357Z,1.67
2023-06-03T11:35:09.649Z,1.77
2023-06-03T11:40:18.483Z,1.80
2023-06-03T11:45:26.158Z,3.10
2023-06-03T11:50:30.559Z,0.80
2023-06-03T11:55:36.358Z,4.00
2023-06-03T12:00:39.229Z,2.00
2023-06-03T12:05:57.152Z,2.37
2023-06-03T12:10:59.603Z,2.37
2023-06-03T12:16:02.027Z,3.13
2023-06-03T12:21:23.445Z,0.80
2023-06-03T12:26:28.908Z,0.90
2023-06-03T12:31:31.320Z,0.63
2023-06-03T12:36:47.550Z,2.03
2023-06-03T12:41:54.487Z,2.80
2023-06-03T12:47:04.276Z,0.77
2023-06-03T12:52:25.485Z,1.48
2023-06-03T12:57:27.757Z,0.98
2023-06-03T13:02:30.097Z,2.00
2023-06-03T13:07:35.393Z,1.23
2023-06-03T13:12:38.778Z,1.30
2023-06-03T13:17:41.337Z,0.70
2023-06-03T13:22:43.736Z,3.85
2023-06-03T13:27:46.049Z,1.90
2023-06-03T13:32:48.549Z,0.88
2023-06-03T13:37:50.917Z,1.85
2023-06-03T13:42:53.179Z,1.52
2023-06-03T13:47:55.643Z,2.55
2023-06-03T13:52:58.120Z,2.22
2023-06-03T13:58:00.441Z,2.50
2023-06-03T14:03:03.653Z,1.00
2023-06-03T14:08:06.076Z,2.17
2023-06-03T14:13:08.413Z,1.35
2023-06-03T14:18:10.727Z,2.63
2023-06-03T14:23:14.378Z,1.63
2023-06-03T14:28:16.922Z,1.52
2023-06-03T14:33:19.447Z,1.05
2023-06-03T14:38:23.083Z,1.33
2023-06-03T14:43:26.251Z,1.27
2023-06-03T14:48:28.642Z,3.58
2023-06-03T14:53:31.912Z,1.55
2023-06-03T14:58:34.328Z,3.03
2023-06-03T15:03:36.760Z,1.90
2023-06-03T15:08:39.077Z,2.58
2023-06-03T15:13:41.415Z,1.85
2023-06-03T15:18:43.889Z,0.95
2023-06-03T15:23:47.273Z,2.95
2023-06-03T15:28:49.689Z,2.45
2023-06-03T15:33:52.062Z,1.25
2023-06-03T15:38:54.422Z,1.75
2023-06-03T15:43:57.246Z,2.22
2023-06-03T15:48:59.590Z,1.83
2023-06-03T15:54:01.991Z,1.83
2023-06-03T15:59:04.337Z,1.30
2023-06-03T16:04:06.801Z,1.95
2023-06-03T16:09:09.688Z,1.45
2023-06-03T16:14:12.026Z,1.55
2023-06-03T16:19:14.394Z,1.00
2023-06-03T16:24:17.728Z,1.75
2023-06-03T16:29:20.146Z,1.17
2023-06-03T16:34:24.044Z,2.15
2023-06-03T16:39:26.460Z,2.55
2023-06-03T16:44:29.217Z,0.93
2023-06-03T16:49:31.582Z,2.95
2023-06-03T16:54:33.975Z,1.10
2023-06-03T16:59:36.504Z,2.00
2023-06-03T17:04:40.159Z,1.55
2023-06-03T17:09:42.516Z,1.02
2023-06-03T17:14:44.846Z,2.78
2023-06-03T17:19:47.219Z,1.30
2023-06-03T17:24:49.568Z,2.38
2023-06-03T17:29:53.703Z,1.77
2023-06-03T17:34:56.088Z,2.23
2023-06-03T17:39:58.476Z,3.27
2023-06-03T17:45:01.433Z,3.30
2023-06-03T17:50:03.993Z,1.27
2023-06-03T17:55:06.664Z,3.40
2023-06-03T18:00:09.777Z,2.33
2023-06-03T18:05:15.060Z,1.57
2023-06-03T18:10:17.540Z,2.83
2023-06-03T18:15:19.907Z,1.70
2023-06-03T18:20:22.365Z,2.67
2023-06-03T18:25:24.791Z,1.50
2023-06-03T18:30:27.140Z,1.73
2023-06-03T18:35:29.548Z,1.57
2023-06-03T18:40:31.956Z,1.47
2023-06-03T18:45:34.639Z,4.53
2023-06-03T18:50:38.579Z,2.57
2023-06-03T18:55:41.706Z,2.97
2023-06-03T19:00:44.058Z,3.00
2023-06-03T19:05:46.400Z,2.30
2023-06-03T19:10:49.821Z,2.47
2023-06-03T19:15:53.254Z,3.57
2023-06-03T19:20:55.757Z,3.23
2023-06-03T19:25:58.128Z,1.97
2023-06-03T19:31:00.640Z,6.57
2023-06-03T19:36:03.078Z,2.60
2023-06-03T19:41:05.452Z,6.13
2023-06-03T19:46:08.520Z,7.23
2023-06-03T19:51:11.062Z,3.37
2023-06-03T19:56:13.564Z,4.10
2023-06-03T20:01:16.189Z,5.17
2023-06-03T20:06:19.059Z,3.87
2023-06-03T20:11:21.368Z,5.27
2023-06-03T20:16:23.790Z,3.07
2023-06-03T20:21:26.231Z,3.13
2023-06-03T20:26:28.819Z,3.80
2023-06-03T20:31:31.234Z,6.93
2023-06-03T20:36:33.840Z,2.83
2023-06-03T20:41:36.425Z,5.73
2023-06-03T20:46:39.142Z,4.43
2023-06-03T20:51:42.032Z,5.57
2023-06-03T20:56:44.679Z,5.47
2023-06-03T21:01:47.053Z,7.47
2023-06-03T21:06:49.440Z,3.80
2023-06-03T21:11:51.861Z,10.00
2023-06-03T21:16:54.216Z,4.77
2023-06-03T21:21:56.691Z,5.80
2023-06-03T21:26:59.367Z,7.43
2023-06-03T21:32:02.135Z,11.13
2023-06-03T21:37:07.440Z,9.23
2023-06-03T21:42:09.828Z,9.60
2023-06-03T21:47:12.822Z,7.53
2023-06-03T21:52:15.429Z,13.67
2023-06-03T21:57:17.766Z,9.40
2023-06-03T22:02:20.176Z,10.87
2023-06-03T22:07:22.489Z,9.20
2023-06-03T22:12:24.853Z,6.77
2023-06-03T22:17:27.363Z,9.40
2023-06-03T22:22:29.667Z,7.37
2023-06-03T22:27:32.020Z,8.90
2023-06-03T22:32:34.403Z,11.53
2023-06-03T22:37:36.769Z,15.30
2023-06-03T22:42:39.082Z,13.13
2023-06-03T22:47:42.047Z,9.73
2023-06-03T22:52:44.621Z,9.77
2023-06-03T22:57:46.952Z,7.87
2023-06-03T23:02:49.385Z,13.90
2023-06-03T23:07:52.976Z,11.23
2023-06-03T23:12:55.353Z,11.77
2023-06-03T23:17:57.782Z,11.70
2023-06-03T23:23:00.324Z,13.03
2023-06-03T23:28:03.300Z,9.47
2023-06-03T23:33:06.720Z,11.97
2023-06-03T23:38:10.996Z,11.53
2023-06-03T23:43:13.363Z,10.63
2023-06-03T23:48:16.059Z,11.23
2023-06-03T23:53:19.170Z,9.20
2023-06-03T23:58:21.603Z,8.33
